Time;durP1;ratioP1;P1;durP2;ratioP2;P2;SDS_P1;SDS_P2;PMS_P1;PMS_P2;Temp;Humidity;BMP_temperature;BMP_pressure;BME280_temperature;BME280_humidity;BME280_pressure;Samples;Min_cycle;Max_cycle;Signal;HPM_P1;HPM_P2
2022/07/02 00:00:06;;;;;;;17.50;12.23;;;;;;;21.32;100.00;97502.19;4984903;28;20037;-77
2022/07/02 00:02:34;;;;;;;17.80;12.63;;;;;;;21.26;100.00;97485.66;5000565;28;20244;-77
2022/07/02 00:05:03;;;;;;;19.95;12.57;;;;;;;21.22;100.00;97484.31;5002994;28;20508;-76
2022/07/02 00:07:29;;;;;;;20.50;12.02;;;;;;;21.14;100.00;97481.53;5026086;28;20073;-75
2022/07/02 00:09:56;;;;;;;17.77;11.90;;;;;;;21.13;100.00;97485.28;5008590;28;20062;-77
2022/07/02 00:12:23;;;;;;;17.25;12.32;;;;;;;21.06;100.00;97485.88;5009965;28;20037;-77
2022/07/02 00:14:53;;;;;;;22.60;11.93;;;;;;;21.00;100.00;97493.84;5003940;28;20027;-77
2022/07/02 00:17:19;;;;;;;16.48;11.50;;;;;;;20.99;100.00;97489.41;5008603;28;20029;-77
2022/07/02 00:19:44;;;;;;;19.52;12.25;;;;;;;21.03;100.00;97486.22;5007679;28;20511;-77
2022/07/02 00:22:10;;;;;;;20.00;11.15;;;;;;;20.98;100.00;97483.09;4996656;28;20062;-77
2022/07/02 00:24:40;;;;;;;23.27;12.73;;;;;;;20.88;100.00;97482.38;5006499;28;20032;-77
2022/07/02 00:27:09;;;;;;;23.38;14.02;;;;;;;20.87;100.00;97482.53;5013513;28;20025;-77
2022/07/02 00:29:41;;;;;;;25.60;13.32;;;;;;;20.83;100.00;97490.16;5030510;28;20041;-76
2022/07/02 00:32:07;;;;;;;19.02;12.05;;;;;;;20.77;100.00;97482.63;5013466;28;20053;-77
2022/07/02 00:34:36;;;;;;;18.80;12.65;;;;;;;20.72;100.00;97473.25;5000572;28;20038;-77
2022/07/02 00:37:02;;;;;;;16.98;12.50;;;;;;;20.80;100.00;97487.75;5002979;28;20497;-76
2022/07/02 00:39:28;;;;;;;19.73;12.77;;;;;;;20.77;100.00;97481.78;5013687;28;20089;-76
2022/07/02 00:41:54;;;;;;;19.58;12.40;;;;;;;20.79;100.00;97491.50;5005170;28;20413;-77
2022/07/02 00:44:22;;;;;;;16.70;12.60;;;;;;;20.72;100.00;97482.28;4997241;28;20036;-77
2022/07/02 00:46:48;;;;;;;18.40;13.57;;;;;;;20.76;100.00;97489.09;5020634;28;20092;-76
2022/07/02 00:49:14;;;;;;;28.05;12.93;;;;;;;20.75;100.00;97481.97;5005153;28;20116;-76
2022/07/02 00:51:40;;;;;;;18.80;13.40;;;;;;;20.73;100.00;97488.56;5002808;28;20117;-76
2022/07/02 00:54:05;;;;;;;17.52;13.07;;;;;;;20.74;100.00;97491.09;5029574;28;20092;-78
2022/07/02 00:56:32;;;;;;;22.10;13.40;;;;;;;20.79;100.00;97488.78;5006443;28;20036;-77
2022/07/02 00:58:58;;;;;;;20.75;13.93;;;;;;;20.74;100.00;97491.09;5008782;28;20452;-76
2022/07/02 01:01:24;;;;;;;20.02;12.88;;;;;;;20.74;100.00;97496.56;5012963;28;20030;-76
2022/07/02 01:03:51;;;;;;;25.40;13.85;;;;;;;20.80;100.00;97489.63;5000354;28;20022;-77
2022/07/02 01:06:17;;;;;;;21.13;13.38;;;;;;;20.71;100.00;97476.97;5013004;28;20026;-79
2022/07/02 01:11:30;;;;;;;19.25;12.25;;;;;;;20.75;100.00;97481.97;4999169;28;20093;-76
2022/07/02 01:13:56;;;;;;;20.27;13.82;;;;;;;20.67;100.00;97465.59;5001379;28;20084;-76
2022/07/02 01:16:22;;;;;;;27.60;14.88;;;;;;;20.80;100.00;97487.75;5013990;28;20041;-76
2022/07/02 01:18:47;;;;;;;21.50;14.77;;;;;;;20.84;100.00;97477.41;5002165;28;20022;-76
2022/07/02 01:21:13;;;;;;;23.23;15.13;;;;;;;20.86;100.00;97470.78;5029383;28;20022;-76
2022/07/02 01:23:38;;;;;;;26.17;14.55;;;;;;;20.88;100.00;97478.81;5029140;28;20038;-76
2022/07/02 01:26:04;;;;;;;19.30;13.82;;;;;;;20.77;100.00;97471.75;5005208;28;20124;-77
2022/07/02 01:28:29;;;;;;;24.83;13.45;;;;;;;20.66;100.00;97468.47;5020785;28;20037;-77
2022/07/02 01:30:55;;;;;;;22.02;13.52;;;;;;;20.66;100.00;97472.03;5003885;28;20064;-76
2022/07/02 01:33:21;;;;;;;15.43;12.13;;;;;;;20.60;100.00;97464.53;5015387;28;20500;-77
2022/07/02 01:35:46;;;;;;;18.70;12.05;;;;;;;20.59;100.00;97472.81;5013759;28;20044;-76
2022/07/02 01:38:12;;;;;;;15.73;12.02;;;;;;;20.59;100.00;97467.38;5040616;28;20033;-77
2022/07/02 01:40:38;;;;;;;23.85;13.02;;;;;;;20.53;100.00;97460.72;5020087;28;20033;-76
2022/07/02 01:43:03;;;;;;;26.33;12.93;;;;;;;20.50;100.00;97463.75;5015445;28;20033;-76
2022/07/02 01:45:29;;;;;;;20.98;12.90;;;;;;;20.52;100.00;97470.72;5044217;28;20401;-76
2022/07/02 01:47:54;;;;;;;22.75;13.13;;;;;;;20.46;100.00;97459.63;5034340;28;20641;-77
2022/07/02 01:50:21;;;;;;;20.63;13.82;;;;;;;20.46;100.00;97479.53;5025597;28;20385;-77
2022/07/02 01:52:46;;;;;;;17.15;12.40;;;;;;;20.28;100.00;97465.13;5015628;28;20025;-76
2022/07/02 01:55:12;;;;;;;19.08;13.25;;;;;;;20.25;100.00;97467.25;5015333;28;20112;-78
2022/07/02 01:57:38;;;;;;;22.58;13.63;;;;;;;20.23;100.00;97482.88;5015620;28;20547;-77
2022/07/02 02:00:06;;;;;;;25.42;13.98;;;;;;;20.12;100.00;97470.38;5015378;28;20123;-77
2022/07/02 02:02:32;;;;;;;24.38;13.90;;;;;;;20.19;100.00;97489.63;5014492;28;20072;-77
2022/07/02 02:04:58;;;;;;;21.98;13.85;;;;;;;20.08;100.00;97479.00;5031672;28;20029;-77
2022/07/02 02:07:24;;;;;;;20.23;13.27;;;;;;;20.06;100.00;97483.75;5031570;28;20044;-77
2022/07/02 02:09:49;;;;;;;22.80;14.15;;;;;;;20.06;100.00;97491.88;5015279;28;20025;-77
2022/07/02 02:12:15;;;;;;;22.10;13.38;;;;;;;20.05;100.00;97492.88;5015106;28;20069;-77
2022/07/02 02:14:41;;;;;;;21.30;14.23;;;;;;;20.04;100.00;97486.59;5011033;28;20025;-77
2022/07/02 02:17:06;;;;;;;22.27;13.35;;;;;;;20.02;100.00;97484.06;5014890;28;20086;-76
2022/07/02 02:19:32;;;;;;;22.98;14.07;;;;;;;20.05;100.00;97492.88;5031545;28;20048;-77
2022/07/02 02:21:57;;;;;;;24.27;13.50;;;;;;;20.01;100.00;97495.91;5014873;28;20037;-76
2022/07/02 02:24:23;;;;;;;19.63;13.68;;;;;;;19.88;100.00;97487.28;5015309;28;20029;-76
2022/07/02 02:26:49;;;;;;;20.55;14.68;;;;;;;19.89;100.00;97486.28;5014699;28;20090;-77
2022/07/02 02:29:14;;;;;;;20.30;13.82;;;;;;;19.91;100.00;97486.97;5014776;28;20133;-77
2022/07/02 02:31:40;;;;;;;20.75;13.00;;;;;;;19.92;100.00;97493.28;5032132;28;20148;-77
2022/07/02 02:34:05;;;;;;;16.67;12.48;;;;;;;19.93;100.00;97492.28;5013303;28;20045;-77
2022/07/02 02:36:31;;;;;;;18.40;12.43;;;;;;;19.87;100.00;97496.44;5014666;28;20036;-77
2022/07/02 02:38:57;;;;;;;17.30;12.15;;;;;;;19.86;100.00;97505.59;5012074;28;20527;-77
2022/07/02 02:41:22;;;;;;;28.38;12.77;;;;;;;19.84;100.00;97514.91;4998353;28;20142;-76
2022/07/02 02:43:48;;;;;;;21.08;12.98;;;;;;;19.84;100.00;97515.75;5013904;28;20048;-76
2022/07/02 02:46:13;;;;;;;21.67;12.45;;;;;;;19.82;100.00;97514.19;5011323;28;20052;-76
2022/07/02 02:48:39;;;;;;;21.83;12.48;;;;;;;19.84;100.00;97515.75;5028194;28;20048;-76
2022/07/02 02:51:06;;;;;;;25.48;13.27;;;;;;;19.89;100.00;97523.44;5012552;28;20093;-76
2022/07/02 02:53:32;;;;;;;23.20;12.60;;;;;;;19.86;100.00;97527.31;5030939;28;20025;-76
2022/07/02 02:55:59;;;;;;;15.60;11.93;;;;;;;19.78;100.00;97524.50;4997868;28;20036;-76
2022/07/02 02:58:25;;;;;;;17.27;13.20;;;;;;;19.82;100.00;97525.06;5030697;28;20026;-77
2022/07/02 03:00:51;;;;;;;27.70;12.60;;;;;;;19.94;100.00;97540.13;5012899;28;20030;-74
2022/07/02 03:03:17;;;;;;;18.60;12.25;;;;;;;19.85;100.00;97536.47;5030524;28;20087;-76
2022/07/02 03:05:42;;;;;;;17.98;12.30;;;;;;;19.89;100.00;97531.59;5014241;28;20033;-80
2022/07/02 03:08:08;;;;;;;15.75;11.73;;;;;;;19.96;100.00;97535.41;5027811;28;20030;-77
2022/07/02 03:10:33;;;;;;;19.25;11.10;;;;;;;19.95;100.00;97537.25;5021325;28;20038;-75
2022/07/02 03:12:59;;;;;;;17.00;11.55;;;;;;;19.93;100.00;97533.00;5024714;28;20124;-86
2022/07/02 03:15:25;;;;;;;14.70;11.32;;;;;;;19.88;100.00;97536.16;5036599;28;20036;-76
2022/07/02 03:17:50;;;;;;;17.42;10.77;;;;;;;19.91;100.00;97541.28;5010478;28;20509;-77
2022/07/02 03:20:16;;;;;;;14.98;11.93;;;;;;;19.88;100.00;97546.16;5010653;28;20105;-77
2022/07/02 03:22:41;;;;;;;17.10;11.52;;;;;;;19.99;100.00;97548.69;5042089;28;20043;-76
2022/07/02 03:25:07;;;;;;;16.17;11.63;;;;;;;20.00;100.00;97550.38;5021687;28;20056;-76
2022/07/02 03:27:34;;;;;;;24.20;12.13;;;;;;;20.01;100.00;97552.94;5012194;28;20029;-78
2022/07/02 03:29:59;;;;;;;25.13;12.40;;;;;;;20.11;100.00;97538.44;5014469;28;20576;-77
2022/07/02 03:32:28;;;;;;;21.00;12.82;;;;;;;20.24;100.00;97557.94;5022522;28;20057;-76
2022/07/02 03:34:54;;;;;;;18.85;12.65;;;;;;;20.30;100.00;97549.19;5037606;28;20034;-78
2022/07/02 03:37:21;;;;;;;32.10;14.43;;;;;;;20.32;100.00;97548.03;5024867;28;20125;-75
2022/07/02 03:39:47;;;;;;;17.67;13.95;;;;;;;20.39;100.00;97553.69;5008466;28;20037;-77
2022/07/02 03:42:12;;;;;;;34.50;14.38;;;;;;;20.42;100.00;97551.53;5032504;28;20030;-76
2022/07/02 03:44:38;;;;;;;20.75;14.15;;;;;;;20.46;100.00;97563.78;5027186;28;20022;-76
2022/07/02 03:47:04;;;;;;;28.33;13.80;;;;;;;20.40;100.00;97556.25;5039894;28;20032;-76
2022/07/02 03:49:32;;;;;;;21.85;12.02;;;;;;;20.40;100.00;97560.81;5029837;28;20060;-76
2022/07/02 03:51:58;;;;;;;19.80;14.38;;;;;;;20.23;100.00;97548.06;5013678;28;20029;-76
2022/07/02 03:54:24;;;;;;;20.77;13.48;;;;;;;20.34;100.00;97572.31;5011165;28;20034;-76
2022/07/02 03:56:49;;;;;;;17.67;12.57;;;;;;;20.20;100.00;97557.38;5013219;28;20449;-75
2022/07/02 03:59:15;;;;;;;18.30;12.63;;;;;;;20.26;100.00;97550.50;5011504;28;20036;-75
2022/07/02 04:01:40;;;;;;;29.35;12.65;;;;;;;20.24;100.00;97561.47;5013345;28;20108;-77
2022/07/02 04:04:06;;;;;;;21.25;12.82;;;;;;;20.22;100.00;97568.09;5013049;28;20025;-77
2022/07/02 04:06:31;;;;;;;18.33;13.05;;;;;;;20.26;100.00;97572.25;5030880;28;20097;-76
2022/07/02 04:08:57;;;;;;;22.83;13.05;;;;;;;20.39;100.00;97578.16;5013101;28;20060;-76
2022/07/02 04:11:22;;;;;;;18.75;13.13;;;;;;;20.38;100.00;97577.28;5013129;28;20033;-76
2022/07/02 04:13:48;;;;;;;20.25;13.60;;;;;;;20.46;100.00;97574.63;5013137;28;20032;-75
2022/07/02 04:16:13;;;;;;;18.48;13.02;;;;;;;20.57;100.00;97578.13;5012974;28;20025;-76
2022/07/02 04:18:39;;;;;;;21.20;13.50;;;;;;;20.78;100.00;97579.53;5013175;28;20029;-75
2022/07/02 04:21:05;;;;;;;19.52;12.75;;;;;;;21.00;100.00;97580.88;5013205;28;20033;-77
2022/07/02 04:23:30;;;;;;;18.88;13.45;;;;;;;21.10;100.00;97575.38;5012945;28;20041;-78
2022/07/02 04:25:56;;;;;;;24.90;12.57;;;;;;;21.21;100.00;97581.41;5013384;28;20488;-77
2022/07/02 04:28:23;;;;;;;20.83;13.20;;;;;;;21.40;100.00;97580.31;5011463;28;20087;-77
2022/07/02 04:30:49;;;;;;;18.58;13.10;;;;;;;21.43;100.00;97574.56;5009969;28;20034;-77
2022/07/02 04:33:14;;;;;;;23.48;12.10;;;;;;;21.43;100.00;97574.56;5004862;28;20093;-75
2022/07/02 04:35:40;;;;;;;16.23;11.55;;;;;;;21.61;100.00;97569.88;5026283;28;20069;-79
2022/07/02 04:38:05;;;;;;;24.58;11.73;;;;;;;21.77;100.00;97583.56;5006996;28;20457;-77
2022/07/02 04:40:32;;;;;;;18.98;12.40;;;;;;;21.96;100.00;97580.63;5025897;28;20096;-74
2022/07/02 04:42:58;;;;;;;18.60;12.07;;;;;;;22.05;100.00;97576.91;5010275;28;20032;-75
2022/07/02 04:45:23;;;;;;;20.88;11.95;;;;;;;22.10;100.00;97571.81;5010082;28;20342;-74
2022/07/02 04:47:49;;;;;;;20.58;12.68;;;;;;;22.00;100.00;97579.25;4993346;28;20061;-77
2022/07/02 04:50:15;;;;;;;23.92;11.95;;;;;;;22.29;100.00;97583.44;5025916;28;20030;-76
2022/07/02 04:52:40;;;;;;;23.35;12.63;;;;;;;22.59;100.00;97591.84;5009640;28;20029;-76
2022/07/02 04:55:06;;;;;;;19.27;13.13;;;;;;;23.92;100.00;97589.47;5006345;28;20160;-75
2022/07/02 04:57:31;;;;;;;18.35;13.13;;;;;;;24.10;96.52;97594.69;5007386;28;20038;-76
2022/07/02 04:59:57;;;;;;;27.17;16.73;;;;;;;24.93;93.32;97592.16;5009541;28;20030;-75
2022/07/02 05:02:23;;;;;;;26.33;11.80;;;;;;;26.43;83.80;97601.84;4993278;28;20030;-76
2022/07/02 05:04:49;;;;;;;23.15;11.65;;;;;;;26.56;79.33;97603.88;4993414;28;20517;-76
2022/07/02 05:07:14;;;;;;;17.05;11.68;;;;;;;27.41;75.30;97602.84;4996418;28;20073;-77
2022/07/02 05:09:40;;;;;;;22.02;11.38;;;;;;;27.81;71.79;97611.44;4996656;28;20034;-76
2022/07/02 05:12:06;;;;;;;18.38;11.63;;;;;;;28.91;67.97;97603.94;5000245;28;20034;-76
2022/07/02 05:14:32;;;;;;;16.75;9.90;;;;;;;29.74;62.70;97594.22;5013104;28;20428;-77
2022/07/02 05:16:57;;;;;;;24.55;15.13;;;;;;;30.58;60.01;97581.25;5029529;28;20061;-76
2022/07/02 05:19:24;;;;;;;23.25;14.35;;;;;;;31.72;56.13;97583.91;5029486;28;20456;-75
2022/07/02 05:21:49;;;;;;;25.98;15.77;;;;;;;32.36;53.66;97587.06;5005087;28;20022;-76
2022/07/02 05:24:15;;;;;;;25.83;12.73;;;;;;;33.16;51.20;97591.31;5012758;28;20036;-77
2022/07/02 05:26:41;;;;;;;20.02;11.60;;;;;;;31.49;54.31;97596.44;4996758;28;20065;-78
2022/07/02 05:29:06;;;;;;;13.93;9.77;;;;;;;32.29;52.69;97591.81;5029439;28;20347;-76
2022/07/02 05:31:32;;;;;;;20.15;11.80;;;;;;;31.19;53.97;97594.53;5029340;28;20046;-76
2022/07/02 05:33:57;;;;;;;22.55;11.63;;;;;;;31.22;55.90;97611.53;5029173;28;20026;-77
2022/07/02 05:36:23;;;;;;;17.23;10.85;;;;;;;32.65;52.32;97619.53;5029221;28;20080;-79
2022/07/02 05:38:49;;;;;;;22.48;11.52;;;;;;;31.10;55.65;97607.78;4996288;28;20084;-77
2022/07/02 05:41:14;;;;;;;18.02;11.13;;;;;;;31.63;54.20;97609.06;5008033;28;20486;-76
2022/07/02 05:43:40;;;;;;;21.40;11.88;;;;;;;32.20;52.26;97610.66;5012780;28;20026;-76
2022/07/02 05:46:06;;;;;;;15.45;10.20;;;;;;;32.10;51.87;97609.50;5003553;28;20034;-78
2022/07/02 05:48:31;;;;;;;30.75;15.85;;;;;;;33.65;48.19;97604.00;5012496;28;20037;-77
2022/07/02 05:50:59;;;;;;;13.73;10.32;;;;;;;33.85;46.96;97591.69;4997174;28;20021;-76
2022/07/02 05:53:25;;;;;;;14.18;10.25;;;;;;;34.59;45.65;97596.44;5013497;28;20026;-78
2022/07/02 05:55:50;;;;;;;16.08;10.50;;;;;;;35.81;43.63;97597.69;5029002;28;20034;-77
2022/07/02 05:58:16;;;;;;;17.15;10.57;;;;;;;36.41;42.05;97583.84;5010139;28;20084;-78
2022/07/02 06:00:42;;;;;;;19.35;10.50;;;;;;;36.04;41.76;97594.72;4996033;28;20038;-77
2022/07/02 06:03:07;;;;;;;15.35;10.60;;;;;;;35.92;42.16;97593.97;5012267;28;20068;-77
2022/07/02 06:08:17;;;;;;;13.70;10.50;;;;;;;34.25;43.97;97609.31;5015521;28;20484;-76
2022/07/02 06:10:42;;;;;;;15.95;9.77;;;;;;;35.54;42.08;97599.41;5028447;28;20066;-76
2022/07/02 06:13:08;;;;;;;12.15;10.00;;;;;;;35.09;43.57;97610.59;5011963;28;20503;-79
2022/07/02 06:15:33;;;;;;;13.45;10.20;;;;;;;35.14;43.72;97607.88;5003841;28;20033;-78
2022/07/02 06:18:00;;;;;;;21.80;10.55;;;;;;;35.62;42.66;97613.81;5002963;28;20025;-77
2022/07/02 06:20:26;;;;;;;21.85;10.13;;;;;;;34.77;43.17;97602.69;5006542;28;20022;-78
2022/07/02 06:22:51;;;;;;;11.75;10.05;;;;;;;35.15;43.68;97609.59;5028206;28;20098;-78
2022/07/02 06:25:17;;;;;;;12.43;9.77;;;;;;;37.03;40.62;97594.72;5003046;28;20018;-78
2022/07/02 06:27:42;;;;;;;19.20;10.00;;;;;;;37.01;40.00;97602.50;4995328;28;20469;-76
2022/07/02 06:30:08;;;;;;;14.73;9.85;;;;;;;37.91;39.08;97602.56;5008902;28;20408;-77
2022/07/02 06:32:35;;;;;;;12.80;10.20;;;;;;;38.50;37.64;97606.91;5027869;28;20074;-77
2022/07/02 06:35:02;;;;;;;13.23;11.52;;;;;;;39.39;36.24;97603.06;5007857;28;20030;-76
2022/07/02 06:37:27;;;;;;;14.07;12.13;;;;;;;34.73;43.71;97618.16;5027683;28;20084;-79
2022/07/02 06:39:53;;;;;;;14.70;12.13;;;;;;;33.48;47.18;97629.84;5011430;28;20061;-77
2022/07/02 06:42:18;;;;;;;21.52;11.75;;;;;;;34.48;45.64;97620.41;5009531;28;20053;-78
2022/07/02 06:44:46;;;;;;;13.80;11.18;;;;;;;35.55;42.83;97615.03;5011160;28;20101;-78
2022/07/02 06:47:12;;;;;;;20.55;14.88;;;;;;;37.89;39.38;97616.78;5027613;28;20404;-79
2022/07/02 06:49:38;;;;;;;17.88;11.27;;;;;;;39.18;37.23;97615.31;5010886;28;20037;-79
2022/07/02 06:52:04;;;;;;;14.68;10.80;;;;;;;39.65;35.66;97610.38;5010961;28;20022;-78
2022/07/02 06:54:29;;;;;;;18.40;10.55;;;;;;;40.06;35.41;97620.47;5000837;28;20049;-77
2022/07/02 06:56:55;;;;;;;14.25;10.98;;;;;;;37.27;38.35;97613.66;5027515;28;20390;-79
2022/07/02 06:59:21;;;;;;;17.08;11.10;;;;;;;37.18;38.94;97617.19;5010774;28;20037;-79
2022/07/02 07:01:46;;;;;;;15.77;10.80;;;;;;;38.15;37.27;97617.00;4994709;28;20046;-78
2022/07/02 07:04:12;;;;;;;15.77;10.90;;;;;;;39.15;35.79;97619.50;5004522;28;20141;-78
2022/07/02 07:06:39;;;;;;;39.63;11.30;;;;;;;39.06;36.52;97614.72;5007342;28;20034;-78
2022/07/02 07:09:05;;;;;;;10.73;9.63;;;;;;;39.55;34.70;97610.38;5023067;28;20487;-78
2022/07/02 07:11:30;;;;;;;13.77;10.27;;;;;;;39.88;34.95;97618.25;4998498;28;20135;-79
2022/07/02 07:13:56;;;;;;;12.05;10.10;;;;;;;40.63;33.12;97619.31;5021581;28;20026;-78
2022/07/02 07:16:21;;;;;;;13.65;9.80;;;;;;;40.94;33.22;97608.84;5010864;28;20462;-79
2022/07/02 07:18:58;;;;;;;13.60;9.43;;;;;;;42.19;31.75;97626.00;5010221;28;20478;-79
2022/07/02 07:21:24;;;;;;;20.45;9.38;;;;;;;41.88;31.73;97618.94;5027202;28;20030;-78
2022/07/02 07:23:49;;;;;;;10.18;8.30;;;;;;;40.73;33.02;97622.09;5010423;28;20029;-77
2022/07/02 07:26:15;;;;;;;13.07;9.35;;;;;;;39.91;33.97;97628.06;5015479;28;20040;-78
2022/07/02 07:28:40;;;;;;;16.60;9.98;;;;;;;39.74;34.83;97622.75;5010169;28;20097;-77
2022/07/02 07:31:06;;;;;;;13.75;9.68;;;;;;;37.71;36.92;97628.38;5007285;28;20065;-76
2022/07/02 07:33:32;;;;;;;12.88;9.68;;;;;;;37.64;37.30;97626.91;5011856;28;20048;-77
2022/07/02 07:35:57;;;;;;;17.83;11.82;;;;;;;37.08;38.18;97631.88;5013783;28;20040;-77
2022/07/02 07:38:23;;;;;;;10.70;8.82;;;;;;;35.97;38.52;97619.13;5029846;28;20373;-77
2022/07/02 07:40:49;;;;;;;10.00;8.52;;;;;;;36.57;38.16;97624.81;5027335;28;20025;-78
2022/07/02 07:43:14;;;;;;;13.05;8.73;;;;;;;38.68;35.65;97625.16;5035049;28;20091;-78
2022/07/02 07:45:40;;;;;;;11.95;7.88;;;;;;;39.08;34.36;97629.25;5026510;28;20038;-79
2022/07/02 07:48:05;;;;;;;11.23;7.93;;;;;;;38.56;35.87;97627.34;4994070;28;20022;-77
2022/07/02 07:50:31;;;;;;;14.55;8.20;;;;;;;38.35;35.31;97625.53;5033465;28;20037;-77
2022/07/02 07:52:57;;;;;;;13.75;8.02;;;;;;;39.17;35.06;97627.59;5036318;28;20034;-77
2022/07/02 07:55:22;;;;;;;12.25;9.30;;;;;;;39.88;33.93;97628.63;5029398;28;20077;-78
2022/07/02 07:57:48;;;;;;;11.95;8.73;;;;;;;40.11;33.52;97630.06;4996539;28;20025;-78
2022/07/02 08:00:14;;;;;;;15.68;8.40;;;;;;;40.47;33.77;97626.91;5039571;28;20030;-78
2022/07/02 08:02:40;;;;;;;10.35;8.45;;;;;;;41.27;32.78;97624.94;5010894;28;20022;-77
2022/07/02 08:05:06;;;;;;;13.30;8.05;;;;;;;41.75;32.16;97631.66;5013349;28;20028;-77
2022/07/02 08:07:36;;;;;;;12.48;7.85;;;;;;;39.53;34.15;97633.03;5013386;28;20025;-77
2022/07/02 08:10:02;;;;;;;12.95;8.13;;;;;;;38.19;36.04;97632.13;5046545;28;20044;-77
2022/07/02 08:12:28;;;;;;;11.45;7.47;;;;;;;38.89;35.84;97626.13;5014625;28;20029;-77
2022/07/02 08:14:53;;;;;;;10.93;7.25;;;;;;;39.53;34.20;97635.84;5027312;28;20032;-78
2022/07/02 08:17:19;;;;;;;12.18;7.68;;;;;;;41.48;31.21;97625.66;5013034;28;20124;-77
2022/07/02 08:19:45;;;;;;;9.15;7.22;;;;;;;40.94;32.27;97623.72;5028190;28;20029;-77
2022/07/02 08:22:10;;;;;;;13.02;7.78;;;;;;;41.18;32.29;97617.41;5038227;28;20033;-77
2022/07/02 08:24:36;;;;;;;10.52;7.35;;;;;;;40.38;32.99;97633.38;5029716;28;20041;-77
2022/07/02 08:27:01;;;;;;;9.80;7.50;;;;;;;40.03;34.06;97625.81;5012502;28;20061;-80
2022/07/02 08:29:27;;;;;;;11.00;7.97;;;;;;;39.79;33.27;97625.53;5037786;28;20017;-79
2022/07/02 08:31:52;;;;;;;9.60;7.35;;;;;;;39.22;33.69;97633.25;4994274;28;20049;-78
2022/07/02 08:34:18;;;;;;;16.70;7.53;;;;;;;39.96;33.61;97639.28;5014852;28;20036;-78
2022/07/02 08:36:44;;;;;;;10.77;8.00;;;;;;;39.67;33.13;97633.38;5036437;28;20460;-78
2022/07/02 08:39:09;;;;;;;10.20;7.43;;;;;;;39.56;33.69;97637.28;5039628;28;20033;-80
2022/07/02 08:41:36;;;;;;;14.65;7.28;;;;;;;40.25;33.09;97629.19;5030113;28;20045;-78
2022/07/02 08:44:02;;;;;;;22.58;7.45;;;;;;;41.00;32.33;97627.34;5022970;28;20048;-78
2022/07/02 08:46:29;;;;;;;8.23;7.05;;;;;;;39.79;33.29;97624.69;5013549;28;20030;-78
2022/07/02 08:48:56;;;;;;;9.93;6.70;;;;;;;39.07;34.79;97638.81;5047779;28;20029;-78
2022/07/02 08:51:21;;;;;;;10.05;7.63;;;;;;;40.17;32.93;97632.56;5016915;28;20031;-78
2022/07/02 08:53:47;;;;;;;12.55;7.00;;;;;;;39.81;33.07;97634.50;5040997;28;20120;-79
2022/07/02 08:56:13;;;;;;;13.77;6.63;;;;;;;38.90;33.51;97625.00;5000421;28;20029;-78
2022/07/02 08:58:40;;;;;;;10.23;6.90;;;;;;;39.97;32.68;97635.34;5013694;28;20489;-78
2022/07/02 09:01:08;;;;;;;10.70;7.32;;;;;;;40.79;32.10;97632.16;5015571;28;20025;-79
2022/07/02 09:03:34;;;;;;;10.60;6.60;;;;;;;40.79;31.71;97634.97;5041502;28;20046;-79
2022/07/02 09:06:00;;;;;;;21.83;6.85;;;;;;;41.97;30.49;97637.69;5039813;28;20025;-79
2022/07/02 09:08:26;;;;;;;12.25;7.32;;;;;;;42.85;29.63;97628.97;5044381;28;20033;-77
2022/07/02 09:10:52;;;;;;;7.38;6.68;;;;;;;41.45;31.26;97631.88;5031271;28;20115;-78
2022/07/02 09:13:18;;;;;;;10.65;7.07;;;;;;;41.29;31.54;97641.47;5029467;28;20029;-79
2022/07/02 09:15:45;;;;;;;9.57;7.03;;;;;;;39.32;34.24;97636.94;5041926;28;20040;-78
2022/07/02 09:18:11;;;;;;;12.82;6.85;;;;;;;40.43;32.81;97637.00;5038874;28;20374;-78
2022/07/02 09:20:37;;;;;;;9.60;7.10;;;;;;;41.28;31.34;97635.06;5040210;28;20474;-79
2022/07/02 09:23:09;;;;;;;7.20;6.50;;;;;;;42.75;29.98;97634.72;5045972;28;20038;-78
2022/07/02 09:25:34;;;;;;;10.93;6.53;;;;;;;43.04;29.27;97627.03;5032887;28;20029;-78
2022/07/02 09:28:03;;;;;;;12.30;7.22;;;;;;;42.82;29.13;97618.31;5041375;28;20475;-78
2022/07/02 09:30:33;;;;;;;11.93;6.63;;;;;;;41.48;30.92;97629.31;5024721;28;20091;-78
2022/07/02 09:35:43;;;;;;;10.32;6.70;;;;;;;41.81;31.87;97635.31;5018576;28;20040;-79
2022/07/02 09:38:10;;;;;;;16.73;6.35;;;;;;;42.32;30.19;97635.72;5016063;28;20030;-79
2022/07/02 09:40:37;;;;;;;12.20;7.07;;;;;;;41.41;31.37;97625.19;5032636;28;20091;-78
2022/07/02 09:43:03;;;;;;;15.38;6.50;;;;;;;44.27;27.72;97621.28;5032234;28;20033;-78
2022/07/02 09:45:29;;;;;;;11.85;6.30;;;;;;;44.58;27.16;97617.56;5015787;28;20029;-79
2022/07/02 09:47:54;;;;;;;8.27;6.18;;;;;;;42.73;29.96;97620.09;5015883;28;20056;-78
2022/07/02 09:50:22;;;;;;;10.68;6.75;;;;;;;41.41;32.48;97640.03;5016083;28;20033;-78
2022/07/02 09:52:54;;;;;;;10.27;6.68;;;;;;;40.99;32.09;97623.69;5032419;28;20025;-78
2022/07/02 09:55:31;;;;;;;7.10;6.43;;;;;;;39.83;34.46;97615.47;5015343;28;20021;-78
2022/07/02 09:58:01;;;;;;;9.52;6.07;;;;;;;40.00;34.85;97630.03;5031789;28;20124;-78
2022/07/02 10:00:31;;;;;;;7.20;6.50;;;;;;;40.25;35.09;97622.72;5032183;28;20025;-77
2022/07/02 10:02:58;;;;;;;18.52;6.20;;;;;;;41.83;32.89;97625.44;5014653;28;20084;-80
2022/07/02 10:05:25;;;;;;;10.68;6.20;;;;;;;41.90;32.08;97622.31;5015354;28;20033;-78
2022/07/02 10:07:52;;;;;;;10.57;6.85;;;;;;;42.49;31.40;97622.00;5031969;28;20038;-78
2022/07/02 10:10:22;;;;;;;8.35;6.38;;;;;;;43.88;28.99;97607.53;5012833;28;20026;-77
2022/07/02 10:12:48;;;;;;;12.93;6.45;;;;;;;40.65;33.44;97621.81;5031762;28;20026;-79
2022/07/02 10:15:15;;;;;;;9.55;7.00;;;;;;;41.12;33.23;97622.22;5031594;28;20032;-80
2022/07/02 10:17:42;;;;;;;9.55;6.50;;;;;;;42.75;30.83;97620.63;5031350;28;20025;-78
2022/07/02 10:20:08;;;;;;;8.52;6.05;;;;;;;43.78;29.72;97614.16;5031440;28;20029;-79
2022/07/02 10:22:34;;;;;;;10.70;6.68;;;;;;;43.96;29.61;97615.31;5010767;28;20449;-79
2022/07/02 10:25:00;;;;;;;8.18;6.30;;;;;;;43.75;30.37;97614.75;5031718;28;20052;-79
2022/07/02 10:27:26;;;;;;;8.05;6.07;;;;;;;42.44;31.78;97611.66;5012951;28;20022;-78
2022/07/02 10:29:52;;;;;;;6.35;5.72;;;;;;;43.16;31.01;97604.91;5031404;28;20032;-78
2022/07/02 10:33:04;;;;;;;10.55;6.90;;;;;;;42.51;31.84;97612.16;5030931;28;20049;-79
2022/07/02 10:35:30;;;;;;;13.02;6.70;;;;;;;41.19;33.71;97614.31;5014512;28;20035;-79
2022/07/02 10:37:57;;;;;;;9.57;6.65;;;;;;;41.70;33.40;97617.66;5030970;28;20108;-79
2022/07/02 10:40:23;;;;;;;11.60;6.03;;;;;;;42.14;33.01;97617.59;5014721;28;20032;-79
2022/07/02 10:42:51;;;;;;;7.63;6.28;;;;;;;43.40;31.47;97606.88;5014838;28;20029;-79
2022/07/02 10:45:18;;;;;;;11.23;6.50;;;;;;;43.77;31.11;97604.06;5031008;28;20091;-79
2022/07/02 10:47:59;;;;;;;14.52;7.22;;;;;;;44.44;30.50;97601.75;5014472;28;20017;-79
2022/07/02 10:50:34;;;;;;;;;;;;;;;43.68;30.26;97597.41;5012217;28;20048;-80
2022/07/02 10:53:22;;;;;;;7.53;6.43;;;;;;;42.65;31.55;97593.44;5014535;28;19920;-79
2022/07/02 10:55:53;;;;;;;10.18;6.28;;;;;;;42.09;32.70;97604.38;5030424;28;20488;-80
2022/07/02 10:58:21;;;;;;;17.90;7.00;;;;;;;41.63;33.62;97603.06;5014435;28;20029;-79
2022/07/02 11:00:47;;;;;;;19.23;7.03;;;;;;;42.71;32.50;97594.22;5011015;28;20048;-79
2022/07/02 11:03:17;;;;;;;11.45;6.63;;;;;;;43.42;31.85;97596.13;5028301;28;20025;-80
2022/07/02 11:06:05;;;;;;;14.98;6.50;;;;;;;43.53;30.67;97594.84;5027810;28;20455;-79
2022/07/02 11:08:47;;;;;;;19.70;6.68;;;;;;;42.90;31.72;97591.44;5037772;28;20034;-79
2022/07/02 11:11:17;;;;;;;7.07;6.38;;;;;;;44.60;30.29;97594.69;5016079;28;20620;-79
2022/07/02 11:13:54;;;;;;;9.55;6.40;;;;;;;44.80;29.67;97599.91;5013185;28;20092;-79
2022/07/02 11:16:30;;;;;;;10.45;6.40;;;;;;;42.80;32.13;97597.19;5014157;28;20116;-79
2022/07/02 11:18:58;;;;;;;9.20;6.40;;;;;;;43.11;31.76;97593.72;5014156;28;20029;-77
2022/07/02 11:21:25;;;;;;;14.65;6.28;;;;;;;43.92;30.47;97588.84;5028321;28;20033;-78